Time;durP1;ratioP1;P1;durP2;ratioP2;P2;SDS_P1;SDS_P2;PMS_P1;PMS_P2;Temp;Humidity;BMP_temperature;BMP_pressure;BME280_temperature;BME280_humidity;BME280_pressure;Samples;Min_cycle;Max_cycle;Signal;HPM_P1;HPM_P2
2022/01/19 00:00:08;;;;;;;35.63;17.73;;;;;;;-142.75;100.00;79717.16;5051230;28;20394;-65
2022/01/19 00:02:34;;;;;;;31.23;16.23;;;;;;;-142.75;100.00;79705.34;5024664;28;20032;-66
2022/01/19 00:04:59;;;;;;;32.43;16.73;;;;;;;-142.75;100.00;79697.44;5019861;28;20482;-65
2022/01/19 00:07:24;;;;;;;37.63;18.47;;;;;;;-142.75;100.00;79691.53;5051250;28;20295;-66
2022/01/19 00:09:49;;;;;;;41.60;19.33;;;;;;;-142.75;100.00;79681.69;5051110;28;20275;-65
2022/01/19 00:12:15;;;;;;;32.75;17.98;;;;;;;-142.75;100.00;79669.88;5051040;28;20274;-65
2022/01/19 00:14:40;;;;;;;26.42;14.90;;;;;;;-142.75;100.00;79673.81;5032152;28;20461;-66
2022/01/19 00:17:05;;;;;;;22.87;13.53;;;;;;;-142.75;100.00;79693.50;5013442;28;20030;-66
2022/01/19 00:19:31;;;;;;;22.42;13.10;;;;;;;-142.75;100.00;79725.03;5013411;28;20373;-66
2022/01/19 00:21:56;;;;;;;22.40;13.57;;;;;;;-142.75;100.00;79711.25;5031781;28;20091;-65
2022/01/19 00:24:21;;;;;;;21.80;12.07;;;;;;;-142.75;100.00;79693.50;5031643;28;20017;-65
2022/01/19 00:26:47;;;;;;;30.70;15.17;;;;;;;-142.75;100.00;79717.16;5032958;28;20288;-66
2022/01/19 00:29:12;;;;;;;111.13;51.95;;;;;;;-142.75;100.00;79713.22;5050536;28;20040;-65
2022/01/19 00:31:37;;;;;;;68.25;32.03;;;;;;;-142.75;100.00;79703.38;5032858;28;20115;-65
2022/01/19 00:34:03;;;;;;;53.60;22.23;;;;;;;-142.75;100.00;79689.56;5033052;28;20398;-65
2022/01/19 00:36:29;;;;;;;51.75;23.17;;;;;;;-142.75;100.00;79662.00;5050653;28;20032;-65
2022/01/19 00:38:54;;;;;;;48.25;20.98;;;;;;;-142.75;100.00;79650.16;5050260;28;20082;-65
2022/01/19 00:41:19;;;;;;;53.95;22.75;;;;;;;-142.75;100.00;79636.38;5050441;28;20471;-66
2022/01/19 00:43:45;;;;;;;47.28;22.63;;;;;;;-142.75;100.00;79624.56;5032680;28;20522;-66
2022/01/19 00:46:10;;;;;;;25.48;14.55;;;;;;;-142.75;100.00;79658.06;5032400;28;20077;-66
2022/01/19 00:48:36;;;;;;;21.83;12.63;;;;;;;-142.75;100.00;79685.63;5037214;28;20026;-66
2022/01/19 00:51:02;;;;;;;;;;;;;;;-142.75;100.00;79689.56;5013391;28;20509;-66
2022/01/19 00:53:27;;;;;;;21.00;12.90;;;;;;;-142.75;100.00;79695.47;5013573;28;19920;-65
2022/01/19 00:55:53;;;;;;;21.88;11.77;;;;;;;-142.75;100.00;79695.47;5030469;28;20048;-66
2022/01/19 00:58:19;;;;;;;26.48;12.38;;;;;;;-142.75;100.00;79697.44;5038752;28;20036;-65
2022/01/19 01:00:44;;;;;;;26.38;13.93;;;;;;;-142.75;100.00;79721.09;5050167;28;20048;-66
2022/01/19 01:03:10;;;;;;;23.65;10.88;;;;;;;-142.75;100.00;79788.06;5050415;28;20021;-66
2022/01/19 01:05:35;;;;;;;16.58;10.13;;;;;;;-142.75;100.00;79805.81;5050017;28;20029;-66
2022/01/19 01:08:01;;;;;;;16.88;8.45;;;;;;;-142.75;100.00;79817.63;5042446;28;20255;-66
2022/01/19 01:10:27;;;;;;;10.20;7.60;;;;;;;-142.75;100.00;79823.53;5012835;28;20032;-65
2022/01/19 01:12:54;;;;;;;9.15;6.65;;;;;;;-142.75;100.00;79827.47;5032315;28;20119;-66
2022/01/19 01:20:38;;;;;;;17.08;10.10;;;;;;;-142.75;100.00;79803.84;5039164;28;20037;-64
2022/01/19 01:23:06;;;;;;;19.93;10.57;;;;;;;-142.75;100.00;79799.91;5050783;28;20040;-66
2022/01/19 01:25:32;;;;;;;59.57;26.40;;;;;;;-142.75;100.00;79764.44;5031617;28;20514;-66
2022/01/19 01:27:57;;;;;;;46.15;19.67;;;;;;;-142.75;100.00;79748.66;5029994;28;20494;-66
2022/01/19 01:30:22;;;;;;;42.65;20.67;;;;;;;-142.75;100.00;79736.84;5030269;28;20033;-66
2022/01/19 01:32:48;;;;;;;47.80;19.10;;;;;;;-142.75;100.00;79703.38;5033091;28;20036;-65
2022/01/19 01:35:13;;;;;;;48.60;20.50;;;;;;;-142.75;100.00;79687.59;5032706;28;20029;-66
2022/01/19 01:37:39;;;;;;;36.75;17.05;;;;;;;-142.75;100.00;79673.81;5019854;28;20013;-65
2022/01/19 01:40:08;;;;;;;32.90;16.25;;;;;;;-142.75;100.00;79691.53;5029789;28;20031;-65
2022/01/19 01:42:33;;;;;;;18.77;11.20;;;;;;;-142.75;100.00;79693.50;5030028;28;20029;-65
2022/01/19 01:45:01;;;;;;;14.35;9.35;;;;;;;-142.75;100.00;79693.50;5029925;28;20035;-64
2022/01/19 01:47:27;;;;;;;21.13;11.23;;;;;;;-142.75;100.00;79701.38;5047478;28;20082;-66
2022/01/19 01:55:17;;;;;;;16.20;8.10;;;;;;;-142.75;100.00;79744.72;5052298;28;20036;-65
2022/01/19 01:57:42;;;;;;;10.13;7.53;;;;;;;-142.75;100.00;79770.34;5053715;28;20032;-66
2022/01/19 02:00:10;;;;;;;9.63;7.27;;;;;;;-142.75;100.00;79780.19;5053700;28;20037;-66
2022/01/19 02:02:36;;;;;;;10.57;7.53;;;;;;;-142.75;100.00;79772.31;5043186;28;20271;-65
2022/01/19 02:05:01;;;;;;;14.30;8.95;;;;;;;-142.75;100.00;79744.72;5015808;28;20017;-64
2022/01/19 02:07:42;;;;;;;15.30;9.05;;;;;;;-142.75;100.00;79717.16;5034276;28;20025;-65
2022/01/19 02:10:18;;;;;;;21.80;11.30;;;;;;;-142.75;100.00;79703.38;5035202;28;20032;-65
2022/01/19 02:21:39;;;;;;;53.97;22.17;;;;;;;-142.75;100.00;79602.88;4953274;28;20090;-66
2022/01/19 02:24:06;;;;;;;56.33;21.73;;;;;;;-142.75;100.00;79569.41;5013076;28;20044;-65
2022/01/19 02:26:48;;;;;;;62.43;26.47;;;;;;;-142.75;100.00;79563.50;5033102;28;20509;-65
2022/01/19 02:29:53;;;;;;;72.53;29.50;;;;;;;-142.75;100.00;79551.69;5033086;28;20030;-66
2022/01/19 02:40:24;;;;;;;49.75;23.73;;;;;;;-142.75;100.00;79476.81;5033217;28;20039;-64
2022/01/19 02:50:32;;;;;;;41.27;18.97;;;;;;;-142.75;100.00;79504.41;5052863;28;20418;-65
2022/01/19 02:52:58;;;;;;;33.97;15.93;;;;;;;-142.75;100.00;79535.91;5035643;28;20442;-64
2022/01/19 02:55:24;;;;;;;23.13;12.75;;;;;;;-142.75;100.00;79531.97;5052551;28;20106;-66
2022/01/19 02:57:50;;;;;;;26.02;12.45;;;;;;;-142.75;100.00;79543.78;5052402;28;20479;-65
2022/01/19 03:08:47;;;;;;;34.53;16.53;;;;;;;-142.75;100.00;79520.16;5052702;28;20572;-65
2022/01/19 03:11:16;;;;;;;35.30;16.33;;;;;;;-142.75;100.00;79508.34;5034505;28;20111;-65
2022/01/19 03:13:42;;;;;;;45.93;18.97;;;;;;;-142.75;100.00;79496.50;5034333;28;20023;-65
2022/01/19 03:16:07;;;;;;;43.07;20.63;;;;;;;-142.75;100.00;79488.63;5052235;28;20033;-65
2022/01/19 03:18:33;;;;;;;40.73;18.73;;;;;;;-142.75;100.00;79484.69;5051978;28;20036;-66
2022/01/19 03:20:59;;;;;;;44.22;18.17;;;;;;;-142.75;100.00;79472.88;5046320;28;20307;-64
2022/01/19 03:23:24;;;;;;;42.55;18.33;;;;;;;-142.75;100.00;79459.09;5015139;28;20423;-65
2022/01/19 03:25:51;;;;;;;50.00;20.73;;;;;;;-142.75;100.00;79451.22;5032015;28;20056;-65
2022/01/19 03:28:18;;;;;;;53.27;23.47;;;;;;;-142.75;100.00;79453.19;5032440;28;20041;-65
2022/01/19 03:30:44;;;;;;;56.33;25.30;;;;;;;-142.75;100.00;79443.31;5020006;28;20037;-65
2022/01/19 03:33:10;;;;;;;57.23;23.97;;;;;;;-142.75;100.00;79441.34;5051827;28;20029;-65
2022/01/19 03:35:36;;;;;;;56.72;23.42;;;;;;;-142.75;100.00;79455.16;5034311;28;20028;-65
2022/01/19 03:38:01;;;;;;;54.78;21.92;;;;;;;-142.75;100.00;79465.00;5051537;28;20029;-65
2022/01/19 03:40:27;;;;;;;55.05;23.75;;;;;;;-142.75;100.00;79474.84;5051802;28;20441;-66
2022/01/19 03:42:53;;;;;;;58.33;25.17;;;;;;;-142.75;100.00;79478.78;5051744;28;20029;-66
2022/01/19 03:45:18;;;;;;;56.90;25.02;;;;;;;-142.75;100.00;79488.63;5051770;28;20498;-65
2022/01/19 03:48:07;;;;;;;55.22;23.85;;;;;;;-142.75;100.00;79478.78;5051949;28;20104;-65
2022/01/19 03:50:33;;;;;;;63.03;27.13;;;;;;;-142.75;100.00;79474.84;5031367;28;20091;-65
2022/01/19 03:52:59;;;;;;;49.47;21.93;;;;;;;-142.75;100.00;79476.81;5014496;28;20026;-65
2022/01/19 03:55:24;;;;;;;48.15;21.27;;;;;;;-142.75;100.00;79490.59;5032018;28;20090;-65
2022/01/19 03:57:49;;;;;;;51.03;22.67;;;;;;;-142.75;100.00;79482.72;5033524;28;20554;-65
2022/01/19 04:00:15;;;;;;;60.17;26.00;;;;;;;-142.75;100.00;79461.06;5051618;28;20027;-65
2022/01/19 04:02:41;;;;;;;61.47;26.60;;;;;;;-142.75;100.00;79439.38;5032953;28;20108;-65
2022/01/19 04:05:15;;;;;;;61.05;26.98;;;;;;;-142.75;100.00;79425.59;5013931;28;20018;-65
2022/01/19 04:07:41;;;;;;;60.67;26.40;;;;;;;-142.75;100.00;79417.72;5013607;28;20104;-65
2022/01/19 04:10:06;;;;;;;47.00;22.33;;;;;;;-142.75;100.00;79417.72;5031328;28;20117;-65
2022/01/19 04:12:44;;;;;;;43.20;20.08;;;;;;;-142.75;100.00;79409.84;5031571;28;20279;-64
2022/01/19 04:15:12;;;;;;;49.70;22.10;;;;;;;-142.75;100.00;79388.16;5031294;28;20040;-64
2022/01/19 04:17:43;;;;;;;55.20;24.13;;;;;;;-142.75;100.00;79368.47;5030783;28;20052;-65
2022/01/19 04:20:09;;;;;;;52.03;22.50;;;;;;;-142.75;100.00;79362.56;5030995;28;20056;-65
2022/01/19 04:22:35;;;;;;;47.95;21.30;;;;;;;-142.75;100.00;79352.72;5031980;28;20080;-65
2022/01/19 04:25:00;;;;;;;49.65;22.70;;;;;;;-142.75;100.00;79335.00;5031199;28;20051;-65
2022/01/19 04:30:09;;;;;;;56.27;25.10;;;;;;;-142.75;100.00;79327.09;5030836;28;20037;-62
2022/01/19 04:35:05;;;;;;;64.67;27.47;;;;;;;-142.75;100.00;79307.41;5050704;28;20087;-65
2022/01/19 04:37:46;;;;;;;38.80;17.10;;;;;;;-142.75;100.00;79307.41;5050850;28;20104;-65
2022/01/19 04:48:38;;;;;;;56.90;25.97;;;;;;;-142.75;100.00;79268.00;5050194;28;20040;-65
2022/01/19 05:02:29;;;;;;;72.90;30.60;;;;;;;-142.75;100.00;79252.25;5050209;28;20399;-66
2022/01/19 05:05:04;;;;;;;81.37;31.60;;;;;;;-142.75;100.00;79244.38;5049976;28;20035;-65
2022/01/19 05:07:37;;;;;;;78.37;31.97;;;;;;;-142.75;100.00;79238.47;5050388;28;20130;-65
2022/01/19 05:15:35;;;;;;;77.03;30.80;;;;;;;-142.75;100.00;79228.63;5050170;28;20441;-65
2022/01/19 05:18:02;;;;;;;77.53;31.77;;;;;;;-142.75;100.00;79224.69;5049754;28;20029;-66
2022/01/19 05:20:28;;;;;;;79.83;31.37;;;;;;;-142.75;100.00;79212.84;5045394;28;20099;-65
2022/01/19 05:22:53;;;;;;;79.10;33.10;;;;;;;-142.75;100.00;79216.78;5013037;28;20081;-65
2022/01/19 05:25:28;;;;;;;71.38;30.35;;;;;;;-142.75;100.00;79204.97;5030117;28;20475;-64
2022/01/19 05:27:53;;;;;;;74.70;30.63;;;;;;;-142.75;100.00;79206.94;5042360;28;20036;-65
2022/01/19 05:30:19;;;;;;;70.60;30.83;;;;;;;-142.75;100.00;79193.16;5031587;28;20064;-65
2022/01/19 05:32:45;;;;;;;75.65;30.90;;;;;;;-142.75;100.00;79189.22;5012381;28;20268;-66
2022/01/19 05:35:10;;;;;;;;;;;;;;;-142.75;100.00;79181.34;5038234;28;20043;-65
2022/01/19 05:37:38;;;;;;;68.20;29.33;;;;;;;-142.75;100.00;79171.50;5047155;28;20390;-65
2022/01/19 05:40:08;;;;;;;74.90;32.30;;;;;;;-142.75;100.00;79171.50;5040993;28;20082;-65
2022/01/19 05:42:34;;;;;;;72.47;30.97;;;;;;;-142.75;100.00;79165.59;5026182;28;20382;-65
2022/01/19 05:45:00;;;;;;;71.22;29.92;;;;;;;-142.75;100.00;79173.47;5046298;28;20027;-65
2022/01/19 05:47:26;;;;;;;80.65;32.70;;;;;;;-142.75;100.00;79185.28;5045919;28;20021;-64
2022/01/19 05:49:51;;;;;;;77.10;33.20;;;;;;;-142.75;100.00;79181.34;5035416;28;20042;-66
2022/01/19 05:52:16;;;;;;;79.78;31.95;;;;;;;-142.75;100.00;79185.28;5041196;28;20271;-65
2022/01/19 05:54:42;;;;;;;78.43;32.60;;;;;;;-142.75;100.00;79177.41;5037412;28;20482;-66
2022/01/19 05:57:07;;;;;;;82.13;33.85;;;;;;;-142.75;100.00;79173.47;5040111;28;20021;-66
2022/01/19 05:59:34;;;;;;;78.25;32.38;;;;;;;-142.75;100.00;79171.50;5041295;28;20031;-66
2022/01/19 06:01:59;;;;;;;76.03;33.83;;;;;;;-142.75;100.00;79169.53;5049375;28;20501;-65
2022/01/19 06:04:25;;;;;;;70.15;30.73;;;;;;;-142.75;100.00;79161.66;5041403;28;20029;-66
2022/01/19 06:06:52;;;;;;;78.82;32.92;;;;;;;-142.75;100.00;79157.72;5039669;28;20479;-64
2022/01/19 06:09:48;;;;;;;74.57;32.07;;;;;;;-142.75;100.00;79143.91;5031849;28;20390;-65
2022/01/19 06:12:08;;;;;;;68.40;31.47;;;;;;;-142.75;100.00;79141.94;5032534;28;20032;-65
2022/01/19 06:14:36;;;;;;;74.93;32.53;;;;;;;-142.75;100.00;79128.16;5012971;28;20041;-65
2022/01/19 06:17:02;;;;;;;74.37;31.23;;;;;;;-142.75;100.00;79130.13;5045135;28;20095;-66
2022/01/19 06:19:28;;;;;;;73.33;32.30;;;;;;;-142.75;100.00;79134.06;5043767;28;20029;-65
2022/01/19 06:21:53;;;;;;;86.72;33.90;;;;;;;-142.75;100.00;79126.19;5042694;28;20025;-66
2022/01/19 06:24:19;;;;;;;79.40;33.15;;;;;;;-142.75;100.00;79108.47;5035752;28;20028;-65
2022/01/19 06:26:44;;;;;;;77.75;31.17;;;;;;;-142.75;100.00;79106.50;5033013;28;20040;-66
2022/01/19 06:29:10;;;;;;;75.68;31.60;;;;;;;-142.75;100.00;79106.50;5030923;28;20391;-65
2022/01/19 06:31:35;;;;;;;79.75;30.58;;;;;;;-142.75;100.00;79110.44;5038593;28;20479;-65
2022/01/19 06:34:00;;;;;;;64.40;29.02;;;;;;;-142.75;100.00;79090.72;5042728;28;20083;-65
2022/01/19 06:36:26;;;;;;;63.33;29.27;;;;;;;-142.75;100.00;79080.88;5045377;28;20025;-65
2022/01/19 06:38:51;;;;;;;67.32;30.00;;;;;;;-142.75;100.00;79069.06;5049702;28;20032;-65
2022/01/19 06:41:17;;;;;;;61.75;28.23;;;;;;;-142.75;100.00;79071.03;5033156;28;20017;-66
2022/01/19 06:43:42;;;;;;;68.70;30.23;;;;;;;-142.75;100.00;79063.16;5033824;28;20033;-65
2022/01/19 06:46:07;;;;;;;68.93;30.10;;;;;;;-142.75;100.00;79069.06;5033559;28;20065;-65
2022/01/19 06:48:33;;;;;;;68.53;30.27;;;;;;;-142.75;100.00;79071.03;5035393;28;20111;-65
2022/01/19 06:50:58;;;;;;;73.90;30.02;;;;;;;-142.75;100.00;79067.09;5038535;28;20280;-64
2022/01/19 06:53:24;;;;;;;73.03;30.67;;;;;;;-142.75;100.00;79059.22;5033543;28;20037;-67
2022/01/19 06:55:49;;;;;;;63.25;29.60;;;;;;;-142.75;100.00;79063.16;5048305;28;20346;-63
2022/01/19 06:58:14;;;;;;;72.97;30.13;;;;;;;-142.75;100.00;79065.13;5036319;28;20435;-65
2022/01/19 07:00:40;;;;;;;72.55;32.92;;;;;;;-142.75;100.00;79067.09;5041124;28;20023;-65
2022/01/19 07:03:05;;;;;;;73.72;29.40;;;;;;;-142.75;100.00;79065.13;5053247;28;20044;-65
2022/01/19 07:05:31;;;;;;;64.85;30.40;;;;;;;-142.75;100.00;79059.22;5042972;28;20029;-65
2022/01/19 07:07:57;;;;;;;64.72;28.65;;;;;;;-142.75;100.00;79063.16;5045165;28;20115;-65
2022/01/19 07:10:23;;;;;;;;;;;;;;;-142.75;100.00;79049.38;5050907;28;20032;-65
2022/01/19 07:12:48;;;;;;;67.67;29.17;;;;;;;-142.75;100.00;79045.44;5038234;28;19913;-64
2022/01/19 07:15:13;;;;;;;72.20;31.15;;;;;;;-142.75;100.00;79051.34;5016902;28;20475;-66
2022/01/19 07:17:39;;;;;;;71.88;30.88;;;;;;;-142.75;100.00;79051.34;5032447;28;20021;-65
2022/01/19 07:20:05;;;;;;;66.00;30.10;;;;;;;-142.75;100.00;79043.47;5047156;28;20029;-65
2022/01/19 07:22:30;;;;;;;61.53;29.40;;;;;;;-142.75;100.00;79041.50;5015560;28;20059;-65
2022/01/19 07:24:58;;;;;;;60.50;29.55;;;;;;;-142.75;100.00;79039.53;5044402;28;20064;-65
2022/01/19 07:27:24;;;;;;;70.70;29.83;;;;;;;-142.75;100.00;79035.59;5040780;28;20020;-65
2022/01/19 07:29:49;;;;;;;69.30;30.50;;;;;;;-142.75;100.00;79035.59;5032401;28;20029;-65
2022/01/19 07:32:14;;;;;;;64.10;29.42;;;;;;;-142.75;100.00;79045.44;5032977;28;20036;-66
2022/01/19 07:34:40;;;;;;;65.07;28.20;;;;;;;-142.75;100.00;79039.53;5023493;28;20025;-65
2022/01/19 07:37:05;;;;;;;58.85;27.13;;;;;;;-142.75;100.00;79035.59;5040954;28;20016;-65
2022/01/19 07:39:30;;;;;;;60.00;27.40;;;;;;;-142.75;100.00;79039.53;5049199;28;20084;-65
2022/01/19 07:41:56;;;;;;;58.60;27.30;;;;;;;-142.75;100.00;79035.59;5052424;28;20478;-65
2022/01/19 07:44:22;;;;;;;63.47;28.70;;;;;;;-142.75;100.00;79029.66;5023749;28;20116;-66
2022/01/19 07:46:48;;;;;;;;;;;;;;;-142.75;100.00;79035.59;5034510;28;20098;-65
2022/01/19 07:49:14;;;;;;;60.30;27.67;;;;;;;-142.75;100.00;79015.88;5014523;28;20410;-65
2022/01/19 07:51:40;;;;;;;62.20;29.33;;;;;;;-142.75;100.00;79017.84;5048419;28;20025;-66
2022/01/19 07:54:05;;;;;;;65.78;27.75;;;;;;;-142.75;100.00;79013.91;5034534;28;20415;-66
2022/01/19 07:56:31;;;;;;;65.55;28.38;;;;;;;-142.75;100.00;79008.00;5031691;28;20394;-64
2022/01/19 07:58:56;;;;;;;69.57;28.88;;;;;;;-142.75;100.00;79006.03;5051991;28;20501;-66
2022/01/19 08:01:22;;;;;;;65.33;28.53;;;;;;;-142.75;100.00;79000.13;5049557;28;20029;-65
2022/01/19 08:03:47;;;;;;;63.63;28.20;;;;;;;-142.75;100.00;79000.13;5044769;28;20022;-67
2022/01/19 08:06:12;;;;;;;55.13;26.52;;;;;;;-142.75;100.00;78986.34;5030583;28;20055;-67
2022/01/19 08:08:38;;;;;;;63.38;29.80;;;;;;;-142.75;100.00;78994.22;5018495;28;20021;-66
2022/01/19 08:11:04;;;;;;;61.63;29.43;;;;;;;-142.75;100.00;78996.19;5021245;28;20083;-67
2022/01/19 08:13:29;;;;;;;57.83;28.70;;;;;;;-142.75;100.00;79000.13;5050561;28;20329;-66
2022/01/19 08:15:55;;;;;;;62.38;28.08;;;;;;;-142.75;100.00;79008.00;5034644;28;20090;-66
2022/01/19 08:18:20;;;;;;;60.53;28.40;;;;;;;-142.75;100.00;79000.13;5032547;28;20025;-66
2022/01/19 08:20:45;;;;;;;66.20;29.00;;;;;;;-142.75;100.00;78998.16;5046199;28;20096;-65
2022/01/19 08:23:11;;;;;;;62.53;29.50;;;;;;;-142.75;100.00;79000.13;5013181;28;20597;-66
2022/01/19 08:25:36;;;;;;;62.67;29.73;;;;;;;-142.75;100.00;79004.06;5043540;28;20753;-65
2022/01/19 08:28:02;;;;;;;68.18;29.67;;;;;;;-142.75;100.00;79002.09;5049132;28;20155;-66
2022/01/19 08:30:28;;;;;;;64.22;29.60;;;;;;;-142.75;100.00;79004.06;5027146;28;20041;-65
2022/01/19 08:32:53;;;;;;;67.07;30.05;;;;;;;-142.75;100.00;79011.94;5031792;28;20022;-66
2022/01/19 08:35:18;;;;;;;66.57;30.13;;;;;;;-142.75;100.00;78996.19;5030838;28;20041;-66
2022/01/19 08:37:44;;;;;;;64.72;27.63;;;;;;;-142.75;100.00;78996.19;5017049;28;20115;-66
2022/01/19 08:40:10;;;;;;;59.30;27.73;;;;;;;-142.75;100.00;79008.00;5030428;28;20037;-67
2022/01/19 08:42:36;;;;;;;;;;;;;;;-142.75;100.00;79025.72;5031800;28;20267;-67
2022/01/19 08:45:07;;;;;;;61.07;28.00;;;;;;;-142.75;100.00;79039.53;5031804;28;20410;-66
2022/01/19 08:47:37;;;;;;;54.17;26.60;;;;;;;-142.75;100.00;79043.47;5030748;28;20025;-65
2022/01/19 08:50:05;;;;;;;61.20;27.73;;;;;;;-142.75;100.00;79055.28;5013432;28;20029;-66
2022/01/19 08:52:31;;;;;;;64.87;27.03;;;;;;;-142.75;100.00;79063.16;5041883;28;20035;-66
2022/01/19 08:54:56;;;;;;;74.28;30.70;;;;;;;-142.75;100.00;79057.25;5033351;28;20029;-66
2022/01/19 08:57:24;;;;;;;62.60;27.37;;;;;;;-142.75;100.00;79053.31;5033465;28;20047;-65
2022/01/19 08:59:50;;;;;;;70.27;29.00;;;;;;;-142.75;100.00;79057.25;5051137;28;20035;-66
2022/01/19 09:02:15;;;;;;;59.60;28.00;;;;;;;-142.75;100.00;79053.31;5051198;28;20033;-66
2022/01/19 09:04:41;;;;;;;60.60;28.90;;;;;;;-142.75;100.00;79057.25;5033028;28;20036;-66
2022/01/19 09:07:06;;;;;;;57.15;27.90;;;;;;;-142.75;100.00;79055.28;5050893;28;20052;-65
2022/01/19 09:09:32;;;;;;;58.67;29.45;;;;;;;-142.75;100.00;79049.38;5041122;28;20026;-67
2022/01/19 09:11:57;;;;;;;69.47;29.80;;;;;;;-142.75;100.00;79031.66;5046395;28;20025;-67
2022/01/19 09:14:22;;;;;;;69.00;29.52;;;;;;;-142.75;100.00;79035.59;5018279;28;20028;-65
2022/01/19 09:16:49;;;;;;;62.78;27.95;;;;;;;-142.75;100.00;79031.66;5050392;28;20029;-65
2022/01/19 09:19:16;;;;;;;60.83;29.40;;;;;;;-142.75;100.00;79027.69;5037151;28;20666;-65
2022/01/19 09:21:41;;;;;;;64.80;29.43;;;;;;;-142.75;100.00;79021.78;5046042;28;20025;-65
2022/01/19 09:24:07;;;;;;;63.38;30.20;;;;;;;-142.75;100.00;79019.81;5031893;28;20025;-64
2022/01/19 09:26:32;;;;;;;66.28;30.45;;;;;;;-142.75;100.00;79019.81;5033396;28;20494;-65
2022/01/19 09:28:58;;;;;;;58.90;29.15;;;;;;;-142.75;100.00;79013.91;5036759;28;20044;-66
2022/01/19 09:31:23;;;;;;;65.38;30.02;;;;;;;-142.75;100.00;79011.94;5034335;28;20382;-67
2022/01/19 09:33:55;;;;;;;67.45;29.70;;;;;;;-142.75;100.00;79011.94;5050927;28;20466;-67
2022/01/19 09:38:56;;;;;;;59.00;28.33;;;;;;;-142.75;100.00;78994.22;5032006;28;20116;-65
2022/01/19 09:41:22;;;;;;;;;;;;;;;-142.75;100.00;78990.28;5031361;28;20479;-66
2022/01/19 09:43:47;;;;;;;56.70;27.50;;;;;;;-142.75;100.00;78988.31;5030886;28;19966;-66
2022/01/19 09:46:12;;;;;;;63.60;28.10;;;;;;;-142.75;100.00;78998.16;5030669;28;20029;-65
2022/01/19 09:48:38;;;;;;;65.35;28.88;;;;;;;-142.75;100.00;79006.03;5012903;28;20036;-67
2022/01/19 09:51:03;;;;;;;65.30;29.08;;;;;;;-142.75;100.00;79008.00;5032317;28;20104;-65
2022/01/19 09:53:28;;;;;;;65.25;29.83;;;;;;;-142.75;100.00;79004.06;5048495;28;20024;-66
2022/01/19 09:55:54;;;;;;;68.07;28.15;;;;;;;-142.75;100.00;79004.06;5034266;28;20065;-65
2022/01/19 09:58:21;;;;;;;67.40;30.27;;;;;;;-142.75;100.00;79006.03;5024310;28;20360;-66
2022/01/19 10:00:47;;;;;;;61.57;30.30;;;;;;;-142.75;100.00;79004.06;5033615;28;20403;-66
2022/01/19 10:03:28;;;;;;;58.92;29.00;;;;;;;-142.75;100.00;79017.84;5036420;28;20033;-66
2022/01/19 10:05:55;;;;;;;61.20;29.67;;;;;;;-142.75;100.00;79002.09;5012049;28;20029;-67
2022/01/19 10:08:28;;;;;;;57.00;29.23;;;;;;;-142.75;100.00;79008.00;5040208;28;20040;-66
2022/01/19 10:11:14;;;;;;;65.43;31.40;;;;;;;-142.75;100.00;79004.06;5037930;28;20032;-66
2022/01/19 10:19:15;;;;;;;61.53;30.57;;;;;;;-142.75;100.00;79000.13;5051946;28;19928;-66
2022/01/19 10:21:58;;;;;;;65.43;32.43;;;;;;;-142.75;100.00;79002.09;5046759;28;20017;-66
2022/01/19 10:24:41;;;;;;;65.33;30.23;;;;;;;-142.75;100.00;78976.50;5033936;28;20029;-66
2022/01/19 10:27:40;;;;;;;60.67;31.77;;;;;;;-142.75;100.00;78972.56;5033141;28;20021;-66
2022/01/19 10:30:05;;;;;;;66.70;31.07;;;;;;;-142.75;100.00;78974.53;5005131;28;20557;-66
2022/01/19 10:32:32;;;;;;;58.60;30.87;;;;;;;-142.75;100.00;78966.66;5034265;28;20220;-66
2022/01/19 10:35:11;;;;;;;63.83;32.40;;;;;;;-142.75;100.00;78966.66;5047642;28;20118;-67
2022/01/19 10:37:36;;;;;;;71.00;32.43;;;;;;;-142.75;100.00;78948.91;5033921;28;20032;-67
2022/01/19 10:40:02;;;;;;;63.33;31.17;;;;;;;-142.75;100.00;78946.94;5015725;28;20025;-67
2022/01/19 10:42:31;;;;;;;;;;;;;;;-142.75;100.00;78935.13;5034218;28;20498;-67
2022/01/19 10:45:00;;;;;;;64.43;31.47;;;;;;;-142.75;100.00;78911.50;5033800;28;19960;-67
2022/01/19 10:47:53;;;;;;;62.30;29.97;;;;;;;-142.75;100.00;78921.34;5047386;28;20466;-66
2022/01/19 10:50:28;;;;;;;61.50;30.40;;;;;;;-142.75;100.00;78917.41;5053566;28;20037;-66
2022/01/19 10:52:56;;;;;;;64.77;31.70;;;;;;;-142.75;100.00;78915.44;5053681;28;20029;-67
2022/01/19 10:55:33;;;;;;;60.67;32.00;;;;;;;-142.75;100.00;78901.66;5035642;28;20032;-67
2022/01/19 10:58:00;;;;;;;64.17;31.87;;;;;;;-142.75;100.00;78897.72;5016707;28;20053;-67
2022/01/19 11:00:32;;;;;;;60.77;31.20;;;;;;;-142.75;100.00;78893.78;5039276;28;20025;-67
2022/01/19 11:03:14;;;;;;;66.27;31.67;;;;;;;-142.75;100.00;78879.97;5037731;28;20035;-68
2022/01/19 11:05:51;;;;;;;61.13;30.63;;;;;;;-142.75;100.00;78866.19;5033404;28;20083;-66
2022/01/19 11:08:19;;;;;;;61.97;32.73;;;;;;;-142.75;100.00;78858.31;5030345;28;20111;-67
2022/01/19 11:10:48;;;;;;;61.83;31.57;;;;;;;-142.75;100.00;78854.38;5034278;28;20021;-66
2022/01/19 11:13:18;;;;;;;62.63;31.83;;;;;;;-142.75;100.00;78866.19;5043348;28;20021;-66
2022/01/19 11:15:43;;;;;;;60.20;31.70;;;;;;;-142.75;100.00;78832.72;5035160;28;20027;-66
2022/01/19 11:18:09;;;;;;;60.00;31.08;;;;;;;-142.75;100.00;78809.06;5021449;28;20017;-67
2022/01/19 11:20:43;;;;;;;61.95;29.80;;;;;;;-142.75;100.00;78801.19;5035988;28;20021;-67
2022/01/19 11:23:38;;;;;;;63.90;31.00;;;;;;;-142.75;100.00;78777.56;5032993;28;20033;-66
2022/01/19 11:26:09;;;;;;;59.27;28.47;;;;;;;-142.75;100.00;78763.78;5036714;28;20482;-67
2022/01/19 11:28:46;;;;;;;62.00;30.60;;;;;;;-142.75;100.00;78771.66;5034242;28;20097;-66
2022/01/19 11:31:15;;;;;;;53.93;28.23;;;;;;;-142.75;100.00;78761.81;5018472;28;20037;-66
2022/01/19 11:33:42;;;;;;;57.37;28.27;;;;;;;-142.75;100.00;78757.88;5052733;28;20105;-65
2022/01/19 11:36:22;;;;;;;58.97;30.00;;;;;;;-142.75;100.00;78740.13;5052467;28;20075;-66
2022/01/19 11:39:17;;;;;;;57.43;31.07;;;;;;;-142.75;100.00;78722.41;5027967;28;20053;-66
2022/01/19 11:42:03;;;;;;;63.13;29.60;;;;;;;-142.75;100.00;78718.47;5032671;28;20151;-67
2022/01/19 11:44:31;;;;;;;60.73;29.90;;;;;;;-142.75;100.00;78716.50;5031504;28;20510;-67
2022/01/19 11:47:16;;;;;;;58.03;29.47;;;;;;;-142.75;100.00;78728.31;5040691;28;20078;-66
2022/01/19 11:49:52;;;;;;;57.33;30.97;;;;;;;-142.75;100.00;78744.09;5039338;28;20032;-66
2022/01/19 11:52:22;;;;;;;61.58;30.23;;;;;;;-142.75;100.00;78712.56;5028419;28;20124;-67
2022/01/19 11:54:48;;;;;;;58.43;29.27;;;;;;;-142.75;100.00;78720.44;5032550;28;20021;-66
2022/01/19 11:57:16;;;;;;;57.90;28.50;;;;;;;-142.75;100.00;78720.44;5035857;28;20025;-67
2022/01/19 11:59:47;;;;;;;57.20;29.90;;;;;;;-142.75;100.00;78706.66;5039180;28;20513;-66
2022/01/19 12:02:24;;;;;;;59.93;29.50;;;;;;;-142.75;100.00;78694.84;5046430;28;20017;-67
2022/01/19 12:04:54;;;;;;;60.30;29.47;;;;;;;-142.75;100.00;78679.09;5036710;28;20025;-67
2022/01/19 12:07:42;;;;;;;56.03;28.83;;;;;;;-142.75;100.00;78673.19;5048425;28;20022;-67
2022/01/19 12:10:14;;;;;;;58.13;30.17;;;;;;;-142.75;100.00;78657.41;5047215;28;20096;-65
2022/01/19 12:12:55;;;;;;;62.67;29.77;;;;;;;-142.75;100.00;78641.66;5041935;28;20030;-67
2022/01/19 12:15:54;;;;;;;57.50;29.60;;;;;;;-142.75;100.00;78641.66;5040820;28;20029;-67
2022/01/19 12:18:39;;;;;;;56.97;29.27;;;;;;;-142.75;100.00;78629.84;5033649;28;20503;-66
2022/01/19 12:21:05;;;;;;;79.30;43.87;;;;;;;-142.75;100.00;78627.88;5045068;28;20176;-68
2022/01/19 12:23:34;;;;;;;52.40;28.37;;;;;;;-142.75;100.00;78625.91;5023059;28;20069;-67